Time;durP1;ratioP1;P1;durP2;ratioP2;P2;SDS_P1;SDS_P2;PMS_P1;PMS_P2;Temp;Humidity;BMP_temperature;BMP_pressure;BME280_temperature;BME280_humidity;BME280_pressure;Samples;Min_cycle;Max_cycle;Signal;HPM_P1;HPM_P2
2022/11/04 00:02:27;;;;;;;0.52;0.52;;;11.80;99.90;;;;;;4965856;28;20245;-93
2022/11/04 00:04:53;;;;;;;0.50;0.50;;;11.90;99.90;;;;;;4983218;28;20706;-89
2022/11/04 00:10:15;;;;;;;0.50;0.50;;;11.80;99.90;;;;;;4988841;28;20117;-87
2022/11/04 00:12:46;;;;;;;0.50;0.50;;;11.70;99.90;;;;;;4938363;28;21001;-93
2022/11/04 00:18:18;;;;;;;0.50;0.50;;;11.70;99.90;;;;;;4986178;28;20904;-87
2022/11/04 00:29:13;;;;;;;0.50;0.50;;;11.40;99.90;;;;;;4975088;28;20744;-93
2022/11/04 00:34:31;;;;;;;0.60;0.60;;;11.40;99.90;;;;;;4970464;28;20048;-91
2022/11/04 00:37:11;;;;;;;0.50;0.50;;;11.40;99.90;;;;;;4973236;28;20475;-93
2022/11/04 00:39:39;;;;;;;0.60;0.60;;;11.30;99.90;;;;;;4970249;28;20534;-88
2022/11/04 00:42:05;;;;;;;0.50;0.50;;;11.30;99.90;;;;;;4998065;28;20040;-94
2022/11/04 00:44:31;;;;;;;0.57;0.57;;;11.20;99.90;;;;;;4944426;28;20046;-90
2022/11/04 00:46:57;;;;;;;0.60;0.60;;;11.20;99.90;;;;;;4993908;28;20141;-87
2022/11/04 00:49:25;;;;;;;0.50;0.50;;;11.20;99.90;;;;;;4969967;28;20469;-87
2022/11/04 00:51:56;;;;;;;0.50;0.50;;;11.20;99.90;;;;;;4939898;28;20047;-94
2022/11/04 00:54:25;;;;;;;0.50;0.50;;;11.10;99.90;;;;;;4973199;28;20127;-93
2022/11/04 00:56:52;;;;;;;0.50;0.50;;;11.10;99.90;;;;;;4987775;28;20040;-88
2022/11/04 00:59:18;;;;;;;0.50;0.50;;;11.00;99.90;;;;;;4993888;28;20051;-94
2022/11/04 01:01:44;;;;;;;0.50;0.50;;;11.00;99.90;;;;;;4976279;28;20047;-92
2022/11/04 01:04:16;;;;;;;0.60;0.60;;;11.00;99.90;;;;;;4974425;28;20044;-88
2022/11/04 01:06:42;;;;;;;0.60;0.60;;;11.00;99.90;;;;;;4970705;28;20344;-85
2022/11/04 01:09:09;;;;;;;0.50;0.50;;;10.90;99.90;;;;;;4994565;28;20148;-91
2022/11/04 01:11:41;;;;;;;0.60;0.60;;;10.90;99.90;;;;;;5002827;28;20604;-95
2022/11/04 01:14:06;;;;;;;0.50;0.50;;;10.90;99.90;;;;;;4991949;28;20047;-92
2022/11/04 01:16:42;;;;;;;0.52;0.52;;;10.90;99.90;;;;;;4966549;28;20067;-93
2022/11/04 01:19:09;;;;;;;0.60;0.60;;;10.90;99.90;;;;;;4985684;28;20463;-90
2022/11/04 01:21:35;;;;;;;0.50;0.50;;;10.90;99.90;;;;;;4983020;28;20067;-92
2022/11/04 01:24:01;;;;;;;0.50;0.50;;;10.90;99.90;;;;;;4955617;28;20468;-89
2022/11/04 01:26:37;;;;;;;0.50;0.50;;;10.90;99.90;;;;;;4953766;28;20105;-89
2022/11/04 01:29:03;;;;;;;0.50;0.50;;;11.00;99.90;;;;;;4998667;28;20070;-93
2022/11/04 01:31:33;;;;;;;0.52;0.52;;;11.00;99.90;;;;;;4972007;28;20054;-95
2022/11/04 01:34:05;;;;;;;0.60;0.60;;;11.00;99.90;;;;;;4990478;28;20045;-92
2022/11/04 01:36:31;;;;;;;0.50;0.50;;;11.00;99.90;;;;;;4973140;28;20048;-92
2022/11/04 01:38:57;;;;;;;0.50;0.50;;;11.00;99.90;;;;;;4955934;28;20047;-91
2022/11/04 01:41:25;;;;;;;0.50;0.50;;;10.90;99.90;;;;;;4952850;28;20055;-88
2022/11/04 01:44:01;;;;;;;0.50;0.50;;;11.00;99.90;;;;;;4967791;28;20045;-90
2022/11/04 01:46:43;;;;;;;0.60;0.60;;;11.00;99.90;;;;;;4981879;28;20056;-91
2022/11/04 01:49:15;;;;;;;0.50;0.50;;;11.00;99.90;;;;;;4987799;28;20052;-95
2022/11/04 01:51:42;;;;;;;0.50;0.50;;;11.00;99.90;;;;;;4968933;28;20040;-91
2022/11/04 01:54:12;;;;;;;0.50;0.50;;;11.00;99.90;;;;;;4943620;28;20051;-93
2022/11/04 01:56:45;;;;;;;0.60;0.60;;;11.20;99.90;;;;;;4981823;28;20070;-86
2022/11/04 01:59:23;;;;;;;0.60;0.60;;;11.10;99.90;;;;;;4991502;28;21140;-93
2022/11/04 02:01:58;;;;;;;0.60;0.60;;;11.20;99.90;;;;;;4991804;28;20057;-94
2022/11/04 02:04:24;;;;;;;0.50;0.50;;;11.20;99.90;;;;;;4987963;28;20541;-89
2022/11/04 02:06:57;;;;;;;0.50;0.50;;;11.30;99.90;;;;;;4973530;28;20570;-91
2022/11/04 02:09:26;;;;;;;0.60;0.60;;;11.20;99.90;;;;;;4986000;28;20146;-90
2022/11/04 02:14:36;;;;;;;0.50;0.50;;;11.30;99.90;;;;;;4962092;28;20047;-89
2022/11/04 02:17:08;;;;;;;0.50;0.50;;;11.30;99.90;;;;;;4973079;28;20055;-91
2022/11/04 02:19:52;;;;;;;0.50;0.50;;;11.30;99.90;;;;;;4973225;28;20051;-90
2022/11/04 02:22:49;;;;;;;0.50;0.50;;;11.30;99.90;;;;;;4977482;28;20525;-87
2022/11/04 02:25:29;;;;;;;0.50;0.50;;;11.30;99.90;;;;;;4972038;28;20586;-90
2022/11/04 02:28:07;;;;;;;0.50;0.50;;;11.30;99.90;;;;;;4972430;28;20364;-93
2022/11/04 02:30:59;;;;;;;0.50;0.50;;;11.30;99.90;;;;;;4990989;28;20044;-96
2022/11/04 02:33:38;;;;;;;0.50;0.50;;;11.30;99.90;;;;;;4979738;28;20747;-88
2022/11/04 02:36:23;;;;;;;0.50;0.50;;;11.20;99.90;;;;;;5001076;28;20054;-89
2022/11/04 02:39:24;;;;;;;0.50;0.50;;;11.30;99.90;;;;;;4979816;28;20045;-89
2022/11/04 02:41:57;;;;;;;0.50;0.50;;;11.30;99.90;;;;;;4976776;28;20717;-92
2022/11/04 02:44:32;;;;;;;0.50;0.50;;;11.20;99.90;;;;;;4979755;28;20055;-91
2022/11/04 02:47:10;;;;;;;0.60;0.60;;;11.30;99.90;;;;;;4987282;28;20052;-94
2022/11/04 02:50:04;;;;;;;0.50;0.50;;;11.20;99.90;;;;;;4984878;28;20048;-93
2022/11/04 02:52:34;;;;;;;0.60;0.60;;;11.20;99.90;;;;;;4989021;28;20059;-94
2022/11/04 02:55:05;;;;;;;0.50;0.50;;;11.20;99.90;;;;;;4982400;28;20452;-89
2022/11/04 02:57:45;;;;;;;0.60;0.60;;;11.20;99.90;;;;;;4987568;28;20050;-93
2022/11/04 03:00:33;;;;;;;0.52;0.52;;;11.10;99.90;;;;;;4963292;28;20041;-92
2022/11/04 03:03:04;;;;;;;0.50;0.50;;;11.20;99.90;;;;;;4994048;28;20048;-90
2022/11/04 03:06:09;;;;;;;0.50;0.50;;;11.10;99.90;;;;;;4978950;28;20348;-95
2022/11/04 03:08:40;;;;;;;0.60;0.60;;;11.10;99.90;;;;;;4928616;28;20056;-92
2022/11/04 03:11:32;;;;;;;;;;;;;;;;;;;;;
2022/11/04 03:14:30;;;;;;;0.60;0.60;;;11.00;99.90;;;;;;5001125;28;20240;-92
2022/11/04 03:17:06;;;;;;;0.50;0.50;;;11.00;99.90;;;;;;4974818;28;20056;-95
2022/11/04 03:20:05;;;;;;;0.60;0.60;;;11.00;99.90;;;;;;4998618;28;20059;-91
2022/11/04 03:22:34;;;;;;;0.50;0.50;;;11.00;99.90;;;;;;4912743;28;20094;-93
2022/11/04 03:25:10;;;;;;;0.60;0.60;;;10.90;99.90;;;;;;4927285;28;20248;-91
2022/11/04 03:28:10;;;;;;;0.60;0.60;;;10.90;99.90;;;;;;4909602;28;20042;-94
2022/11/04 03:30:42;;;;;;;0.50;0.50;;;10.90;99.90;;;;;;4913087;28;20085;-93
2022/11/04 03:33:24;;;;;;;0.55;0.55;;;10.80;99.90;;;;;;4988202;28;20053;-95
2022/11/04 03:35:53;;;;;;;0.52;0.52;;;10.80;99.90;;;;;;4982260;28;20929;-87
2022/11/04 03:38:31;;;;;;;0.60;0.60;;;10.90;99.90;;;;;;4976580;28;20110;-93
2022/11/04 03:40:59;;;;;;;0.60;0.60;;;10.80;99.90;;;;;;4976489;28;20135;-86
2022/11/04 03:43:31;;;;;;;0.60;0.60;;;10.80;99.90;;;;;;4980497;28;20047;-89
2022/11/04 03:45:57;;;;;;;0.60;0.60;;;10.80;99.90;;;;;;4966338;28;20045;-89
2022/11/04 03:48:25;;;;;;;0.60;0.60;;;10.70;99.90;;;;;;4962252;28;20487;-85
2022/11/04 03:50:51;;;;;;;0.60;0.60;;;10.60;99.90;;;;;;4971439;28;20044;-86
2022/11/04 03:53:26;;;;;;;0.60;0.60;;;10.70;99.90;;;;;;4967251;28;20161;-95
2022/11/04 03:56:11;;;;;;;0.60;0.60;;;10.70;99.90;;;;;;4963424;28;20537;-86
2022/11/04 03:58:48;;;;;;;0.60;0.60;;;10.60;99.90;;;;;;4963622;28;20266;-87
2022/11/04 04:01:33;;;;;;;0.60;0.60;;;10.60;99.90;;;;;;4965626;28;20048;-90
2022/11/04 04:04:13;;;;;;;0.60;0.60;;;10.50;99.90;;;;;;4971039;28;20051;-88
2022/11/04 04:06:51;;;;;;;0.60;0.60;;;10.60;99.90;;;;;;4977334;28;20047;-91
2022/11/04 04:09:22;;;;;;;0.60;0.60;;;10.50;99.90;;;;;;4975174;28;20046;-88
2022/11/04 04:12:04;;;;;;;0.60;0.60;;;10.50;99.90;;;;;;4981827;28;20127;-90
2022/11/04 04:14:44;;;;;;;0.60;0.60;;;10.60;99.90;;;;;;4969776;28;20775;-91
2022/11/04 04:17:48;;;;;;;0.60;0.60;;;10.60;99.90;;;;;;4986436;28;20047;-92
2022/11/04 04:20:21;;;;;;;0.60;0.60;;;10.50;99.90;;;;;;4918547;28;20049;-89
2022/11/04 04:27:29;;;;;;;0.60;0.60;;;10.50;99.90;;;;;;4896490;28;20132;-88
2022/11/04 04:28:48;;;;;;;0.60;0.60;;;10.50;99.90;;;;;;4965154;28;20158;-90
2022/11/04 04:31:48;;;;;;;0.60;0.60;;;10.50;99.90;;;;;;4972411;28;20123;-93
2022/11/04 04:34:05;;;;;;;0.60;0.60;;;10.50;99.90;;;;;;4957429;28;20576;-85
2022/11/04 04:36:40;;;;;;;0.60;0.60;;;10.50;99.90;;;;;;4980749;28;20854;-88
2022/11/04 04:45:04;;;;;;;0.60;0.60;;;10.50;99.90;;;;;;4996199;28;20057;-95
2022/11/04 04:47:52;;;;;;;0.60;0.60;;;10.40;99.90;;;;;;4986768;28;20240;-96
2022/11/04 04:50:42;;;;;;;0.60;0.60;;;10.50;99.90;;;;;;4984658;28;20607;-90
2022/11/04 04:53:08;;;;;;;0.60;0.60;;;10.50;99.90;;;;;;4956803;28;20502;-90
2022/11/04 04:55:34;;;;;;;0.60;0.60;;;10.50;99.90;;;;;;4977354;28;20056;-92
2022/11/04 04:57:59;;;;;;;0.60;0.60;;;10.30;99.90;;;;;;4947106;28;20397;-89
2022/11/04 05:00:28;;;;;;;0.60;0.60;;;10.30;99.90;;;;;;4994056;28;20540;-90
2022/11/04 05:02:54;;;;;;;0.60;0.60;;;10.40;99.90;;;;;;5006321;28;20501;-92
2022/11/04 05:05:22;;;;;;;0.50;0.50;;;10.40;99.90;;;;;;4977068;28;20040;-90
2022/11/04 05:07:48;;;;;;;0.60;0.60;;;10.40;99.90;;;;;;4978503;28;20079;-90
2022/11/04 05:10:23;;;;;;;0.60;0.60;;;10.40;99.90;;;;;;4963088;28;20996;-92
2022/11/04 05:15:34;;;;;;;0.50;0.50;;;10.40;99.90;;;;;;4968303;28;20144;-89
2022/11/04 05:18:01;;;;;;;0.60;0.60;;;10.40;99.90;;;;;;4952702;28;20044;-88
2022/11/04 05:20:32;;;;;;;0.60;0.60;;;10.40;99.90;;;;;;4979742;28;20497;-90
2022/11/04 05:23:01;;;;;;;0.60;0.60;;;10.40;99.90;;;;;;4983801;28;20438;-88
2022/11/04 05:25:27;;;;;;;0.60;0.60;;;10.30;99.90;;;;;;4954696;28;20334;-86
2022/11/04 05:27:52;;;;;;;0.60;0.60;;;10.30;99.90;;;;;;4965126;28;20075;-92
2022/11/04 05:30:37;;;;;;;0.60;0.60;;;10.20;99.90;;;;;;4949073;28;20054;-91
2022/11/04 05:33:03;;;;;;;0.50;0.50;;;10.10;99.90;;;;;;4968049;28;20044;-88
2022/11/04 05:35:32;;;;;;;0.60;0.60;;;10.10;99.90;;;;;;4962036;28;20368;-92
2022/11/04 05:37:57;;;;;;;0.57;0.57;;;10.00;99.90;;;;;;4970825;28;20116;-87
2022/11/04 05:40:24;;;;;;;0.60;0.60;;;9.90;99.90;;;;;;4976904;28;20540;-89
2022/11/04 05:42:50;;;;;;;0.60;0.60;;;9.90;99.90;;;;;;4953275;28;20109;-90
2022/11/04 05:45:19;;;;;;;0.60;0.60;;;9.90;99.90;;;;;;4957168;28;20264;-89
2022/11/04 05:47:44;;;;;;;0.50;0.50;;;9.80;99.90;;;;;;4933696;28;20057;-89
2022/11/04 05:50:10;;;;;;;0.60;0.60;;;9.80;99.90;;;;;;4951290;28;20048;-90
2022/11/04 05:52:36;;;;;;;0.60;0.60;;;9.80;99.90;;;;;;4958199;28;20764;-89
2022/11/04 05:55:02;;;;;;;0.60;0.60;;;9.80;99.90;;;;;;4958308;28;20056;-90
2022/11/04 05:57:27;;;;;;;0.60;0.60;;;9.70;99.90;;;;;;4955599;28;20055;-91
2022/11/04 06:00:13;;;;;;;0.60;0.60;;;9.60;99.90;;;;;;4954857;28;21266;-91
2022/11/04 06:02:39;;;;;;;0.60;0.60;;;9.60;99.90;;;;;;4983415;28;20526;-87
2022/11/04 06:05:05;;;;;;;0.60;0.60;;;9.60;99.90;;;;;;4973344;28;20775;-87
2022/11/04 06:07:31;;;;;;;0.60;0.60;;;9.60;99.90;;;;;;4965499;28;20410;-91
2022/11/04 06:09:57;;;;;;;0.60;0.60;;;9.40;99.90;;;;;;4975834;28;20056;-88
2022/11/04 06:12:25;;;;;;;0.60;0.60;;;9.40;99.90;;;;;;4952416;28;20085;-87
2022/11/04 06:14:51;;;;;;;0.65;0.65;;;9.40;99.90;;;;;;4962754;28;20102;-87
2022/11/04 06:17:20;;;;;;;0.60;0.60;;;9.40;99.90;;;;;;4966783;28;20062;-87
2022/11/04 06:19:46;;;;;;;0.60;0.60;;;9.40;99.90;;;;;;4973266;28;20049;-88
2022/11/04 06:22:17;;;;;;;0.60;0.60;;;9.40;99.90;;;;;;4952729;28;20215;-87
2022/11/04 06:24:44;;;;;;;0.60;0.60;;;9.30;99.90;;;;;;4957407;28;20109;-86
2022/11/04 06:27:10;;;;;;;0.60;0.60;;;9.30;99.90;;;;;;4964282;28;20816;-88
2022/11/04 06:29:39;;;;;;;0.60;0.60;;;9.30;99.90;;;;;;4973253;28;20400;-86
2022/11/04 06:32:09;;;;;;;0.60;0.60;;;9.40;99.90;;;;;;4939372;28;20060;-85
2022/11/04 06:34:36;;;;;;;0.60;0.60;;;9.30;99.90;;;;;;4948065;28;20044;-86
2022/11/04 06:37:02;;;;;;;0.60;0.60;;;9.20;99.90;;;;;;4971866;28;20073;-86
2022/11/04 06:39:27;;;;;;;0.60;0.60;;;9.10;99.90;;;;;;4946741;28;20849;-86
2022/11/04 06:41:53;;;;;;;0.60;0.60;;;9.10;99.90;;;;;;4953479;28;20848;-86
2022/11/04 06:44:19;;;;;;;0.60;0.60;;;9.20;99.90;;;;;;4967242;28;20261;-86
2022/11/04 06:46:45;;;;;;;0.60;0.60;;;9.30;99.90;;;;;;4993232;28;20242;-87
2022/11/04 06:49:16;;;;;;;0.60;0.60;;;9.30;99.90;;;;;;4933548;28;20444;-85
2022/11/04 06:51:43;;;;;;;0.60;0.60;;;9.40;99.90;;;;;;4966773;28;20185;-84
2022/11/04 06:54:09;;;;;;;0.60;0.60;;;9.50;99.90;;;;;;4964922;28;20588;-85
2022/11/04 06:56:35;;;;;;;0.57;0.57;;;9.40;99.90;;;;;;4959247;28;20041;-87
2022/11/04 06:59:01;;;;;;;0.60;0.60;;;9.60;99.90;;;;;;4953189;28;21005;-86
2022/11/04 07:01:30;;;;;;;0.60;0.60;;;9.50;99.90;;;;;;4958581;28;20110;-85
2022/11/04 07:03:58;;;;;;;0.60;0.60;;;9.50;99.90;;;;;;4971857;28;20060;-86
2022/11/04 07:06:25;;;;;;;0.60;0.60;;;9.60;99.90;;;;;;4976191;28;20056;-88
2022/11/04 07:08:51;;;;;;;0.60;0.60;;;9.60;99.90;;;;;;4949756;28;20211;-85
2022/11/04 07:11:20;;;;;;;0.60;0.60;;;9.50;99.90;;;;;;4963970;28;20413;-92
2022/11/04 07:13:47;;;;;;;0.60;0.60;;;9.50;99.90;;;;;;4966304;28;20528;-87
2022/11/04 07:16:14;;;;;;;0.60;0.60;;;9.40;99.90;;;;;;4975252;28;20044;-86
2022/11/04 07:18:40;;;;;;;0.60;0.60;;;9.40;99.90;;;;;;4949546;28;20040;-86
2022/11/04 07:21:06;;;;;;;0.60;0.60;;;9.50;99.90;;;;;;4971646;28;20548;-85
2022/11/04 07:23:32;;;;;;;0.60;0.60;;;9.50;99.90;;;;;;4982336;28;20045;-87
2022/11/04 07:26:04;;;;;;;0.60;0.60;;;9.60;99.90;;;;;;4955980;28;20047;-87
2022/11/04 07:28:30;;;;;;;0.60;0.60;;;9.50;99.90;;;;;;4954860;28;20600;-86
2022/11/04 07:31:00;;;;;;;0.60;0.60;;;9.60;99.90;;;;;;4974135;28;20051;-87
2022/11/04 07:33:26;;;;;;;0.60;0.60;;;9.50;99.90;;;;;;4971332;28;20408;-87
2022/11/04 07:35:55;;;;;;;0.60;0.60;;;9.40;99.90;;;;;;4960467;28;20508;-89
2022/11/04 07:38:21;;;;;;;0.60;0.60;;;9.60;99.90;;;;;;4960881;28;20049;-85
2022/11/04 07:40:48;;;;;;;0.60;0.60;;;9.60;99.90;;;;;;4971076;28;20294;-86
2022/11/04 07:43:14;;;;;;;0.60;0.60;;;9.60;99.90;;;;;;4950532;28;20728;-87
2022/11/04 07:45:40;;;;;;;0.60;0.60;;;9.80;99.90;;;;;;4968128;28;20060;-84
2022/11/04 07:48:06;;;;;;;0.60;0.60;;;9.70;99.90;;;;;;4992131;28;20375;-89
2022/11/04 07:50:32;;;;;;;0.60;0.60;;;9.60;99.90;;;;;;4945090;28;20048;-87
2022/11/04 07:52:59;;;;;;;0.60;0.60;;;9.60;99.90;;;;;;4954874;28;20055;-85
2022/11/04 07:55:25;;;;;;;0.60;0.60;;;9.50;99.90;;;;;;4971504;28;20159;-90
2022/11/04 07:57:50;;;;;;;0.60;0.60;;;9.60;99.90;;;;;;4969660;28;20386;-85
2022/11/04 08:00:16;;;;;;;0.60;0.60;;;9.50;99.90;;;;;;4963227;28;20052;-87
2022/11/04 08:02:45;;;;;;;0.60;0.60;;;9.60;99.90;;;;;;4956491;28;20347;-88
2022/11/04 08:05:20;;;;;;;0.60;0.60;;;9.80;99.90;;;;;;4979282;28;20103;-88
2022/11/04 08:07:46;;;;;;;0.60;0.60;;;10.00;99.90;;;;;;4943021;28;20040;-89
2022/11/04 08:10:12;;;;;;;0.60;0.60;;;10.10;99.90;;;;;;4978169;28;20467;-90
2022/11/04 08:12:37;;;;;;;0.60;0.60;;;10.00;99.90;;;;;;4966854;28;20343;-88
2022/11/04 08:15:04;;;;;;;0.60;0.60;;;10.00;99.90;;;;;;4941402;28;20219;-87
2022/11/04 08:17:32;;;;;;;0.60;0.60;;;10.20;99.90;;;;;;4974156;28;20036;-89
2022/11/04 08:19:58;;;;;;;0.60;0.60;;;10.30;99.90;;;;;;4942682;28;20051;-86
2022/11/04 08:22:23;;;;;;;0.60;0.60;;;10.30;99.90;;;;;;4976931;28;20379;-89
2022/11/04 08:24:49;;;;;;;0.50;0.50;;;10.30;99.90;;;;;;4980781;28;20048;-87
2022/11/04 08:27:15;;;;;;;0.60;0.60;;;10.20;99.90;;;;;;4984233;28;20412;-88
2022/11/04 08:29:41;;;;;;;0.60;0.60;;;10.10;99.90;;;;;;4977819;28;20383;-87
2022/11/04 08:32:07;;;;;;;0.60;0.60;;;10.10;99.90;;;;;;4970512;28;20071;-89
2022/11/04 08:34:33;;;;;;;0.60;0.60;;;10.10;99.90;;;;;;4976921;28;20131;-86
2022/11/04 08:36:59;;;;;;;0.60;0.60;;;10.20;99.90;;;;;;4972119;28;20110;-89
2022/11/04 08:39:35;;;;;;;;;;;;;;;;;;;;;
2022/11/04 08:42:05;;;;;;;0.60;0.60;;;10.40;99.90;;;;;;4960661;28;20633;-89
2022/11/04 08:44:33;;;;;;;0.60;0.60;;;10.40;99.90;;;;;;4977883;28;20607;-91
2022/11/04 08:46:59;;;;;;;0.50;0.50;;;10.50;99.90;;;;;;4957886;28;20853;-87
2022/11/04 08:49:25;;;;;;;0.60;0.60;;;10.60;99.90;;;;;;4974245;28;20052;-88
2022/11/04 08:51:58;;;;;;;0.60;0.60;;;10.60;99.90;;;;;;4958940;28;20048;-87
2022/11/04 08:54:25;;;;;;;0.60;0.60;;;10.60;99.90;;;;;;4980002;28;20458;-83
2022/11/04 08:56:52;;;;;;;0.60;0.60;;;10.80;99.90;;;;;;4973716;28;20293;-88
2022/11/04 08:59:18;;;;;;;0.60;0.60;;;11.10;99.90;;;;;;4953428;28;20263;-87
2022/11/04 09:01:44;;;;;;;0.60;0.60;;;11.30;99.90;;;;;;4973888;28;20086;-87
2022/11/04 09:04:11;;;;;;;0.60;0.60;;;11.50;99.90;;;;;;4948635;28;20726;-87
2022/11/04 09:06:40;;;;;;;0.60;0.60;;;11.40;99.90;;;;;;4971189;28;20423;-89
2022/11/04 09:09:08;;;;;;;0.50;0.50;;;11.30;99.90;;;;;;4965772;28;20048;-86
2022/11/04 09:11:38;;;;;;;0.50;0.50;;;11.20;99.90;;;;;;4944486;28;20322;-86
2022/11/04 09:14:06;;;;;;;0.60;0.60;;;11.30;99.90;;;;;;4964957;28;20040;-86
2022/11/04 09:16:33;;;;;;;0.50;0.50;;;11.20;99.90;;;;;;4964932;28;20557;-88
2022/11/04 09:18:59;;;;;;;0.60;0.60;;;11.30;99.90;;;;;;4959613;28;20569;-87
2022/11/04 09:21:26;;;;;;;0.50;0.50;;;11.20;99.90;;;;;;4953433;28;20869;-87
2022/11/04 09:23:52;;;;;;;0.60;0.60;;;11.30;99.90;;;;;;4958688;28;20056;-88
2022/11/04 09:26:19;;;;;;;0.55;0.55;;;11.30;99.90;;;;;;4957876;28;20499;-89
2022/11/04 09:28:45;;;;;;;0.60;0.60;;;11.30;99.90;;;;;;4971555;28;20418;-86
2022/11/04 09:31:18;;;;;;;0.60;0.60;;;11.20;99.90;;;;;;4976885;28;20451;-87
2022/11/04 09:33:44;;;;;;;0.60;0.60;;;11.20;99.90;;;;;;4976516;28;20624;-90
2022/11/04 09:36:11;;;;;;;0.60;0.60;;;11.20;99.90;;;;;;4954469;28;20584;-87
2022/11/04 09:38:39;;;;;;;0.50;0.50;;;11.20;99.90;;;;;;4971243;28;20233;-88
2022/11/04 09:41:33;;;;;;;0.60;0.60;;;11.20;99.90;;;;;;4974576;28;20422;-86
2022/11/04 09:44:17;;;;;;;0.60;0.60;;;11.20;99.90;;;;;;4969668;28;20409;-86
2022/11/04 09:46:47;;;;;;;0.82;0.82;;;11.20;99.90;;;;;;4967463;28;20388;-87
2022/11/04 09:49:15;;;;;;;0.50;0.50;;;11.20;99.90;;;;;;4969834;28;20044;-86
2022/11/04 09:51:44;;;;;;;0.57;0.57;;;11.20;99.90;;;;;;4958621;28;20913;-87
2022/11/04 09:54:22;;;;;;;0.60;0.60;;;11.20;99.90;;;;;;4957703;28;20684;-87
2022/11/04 09:56:50;;;;;;;0.55;0.55;;;11.30;99.90;;;;;;4983974;28;20410;-85
2022/11/04 09:59:30;;;;;;;0.60;0.60;;;11.20;99.90;;;;;;4974086;28;20036;-87
2022/11/04 10:02:40;;;;;;;0.60;0.60;;;11.10;99.90;;;;;;4959785;28;20463;-88
2022/11/04 10:05:55;;;;;;;0.60;0.60;;;11.20;99.90;;;;;;4953353;28;20620;-85
2022/11/04 10:08:48;;;;;;;0.60;0.60;;;11.20;99.90;;;;;;4971090;28;20148;-84
2022/11/04 10:11:29;;;;;;;0.50;0.50;;;11.20;99.90;;;;;;4971382;28;20128;-82
2022/11/04 10:14:35;;;;;;;0.60;0.60;;;11.20;99.90;;;;;;4967542;28;20056;-84
2022/11/04 10:17:29;;;;;;;0.60;0.60;;;11.30;99.90;;;;;;4971997;28;20399;-87
2022/11/04 10:20:29;;;;;;;0.60;0.60;;;11.40;99.90;;;;;;4972272;28;20504;-87
2022/11/04 10:23:01;;;;;;;0.60;0.60;;;11.50;99.90;;;;;;4954742;28;20975;-87
2022/11/04 10:25:36;;;;;;;0.60;0.60;;;11.70;99.90;;;;;;4951891;28;20048;-88
2022/11/04 10:28:03;;;;;;;0.60;0.60;;;11.80;99.90;;;;;;4949733;28;20160;-87
2022/11/04 10:30:30;;;;;;;0.50;0.50;;;11.70;99.90;;;;;;4923754;28;20103;-87
2022/11/04 10:33:12;;;;;;;0.50;0.50;;;11.80;99.90;;;;;;4961166;28;20302;-85
2022/11/04 10:35:58;;;;;;;0.50;0.50;;;11.70;99.90;;;;;;4939337;28;20064;-85
2022/11/04 10:38:46;;;;;;;0.60;0.60;;;11.70;99.90;;;;;;4956185;28;20044;-87
2022/11/04 10:41:36;;;;;;;0.50;0.50;;;11.70;99.90;;;;;;4941797;28;20876;-85
2022/11/04 10:44:05;;;;;;;0.60;0.60;;;11.80;99.90;;;;;;4944045;28;20056;-88
2022/11/04 10:46:43;;;;;;;0.60;0.60;;;11.60;99.90;;;;;;4959345;28;20044;-87
2022/11/04 10:49:11;;;;;;;0.50;0.50;;;11.50;99.90;;;;;;4950318;28;20453;-87
2022/11/04 10:51:37;;;;;;;0.50;0.50;;;11.40;99.90;;;;;;4947636;28;20060;-92
2022/11/04 10:54:07;;;;;;;0.60;0.60;;;11.60;99.90;;;;;;4927566;28;20053;-85
2022/11/04 10:56:43;;;;;;;0.57;0.57;;;11.60;99.90;;;;;;4953930;28;20052;-86
2022/11/04 10:59:42;;;;;;;0.57;0.57;;;11.80;99.90;;;;;;4938441;28;21254;-87
2022/11/04 11:02:08;;;;;;;0.50;0.50;;;12.20;99.90;;;;;;4941997;28;20547;-87
2022/11/04 11:04:37;;;;;;;0.60;0.60;;;12.70;99.90;;;;;;4943666;28;20053;-86
2022/11/04 11:07:09;;;;;;;0.60;0.60;;;12.90;99.90;;;;;;4953140;28;20045;-84
2022/11/04 11:09:48;;;;;;;0.50;0.50;;;12.60;99.90;;;;;;4958888;28;20070;-88
2022/11/04 11:12:15;;;;;;;0.50;0.50;;;12.40;99.90;;;;;;4944000;28;20534;-86
2022/11/04 11:14:41;;;;;;;0.50;0.50;;;12.80;99.90;;;;;;4958529;28;20490;-87
2022/11/04 11:17:13;;;;;;;0.50;0.50;;;13.00;99.90;;;;;;4955716;28;20061;-87
2022/11/04 11:20:07;;;;;;;0.50;0.50;;;13.00;99.90;;;;;;4958999;28;20525;-87
2022/11/04 11:22:40;;;;;;;4.05;3.38;;;13.00;99.90;;;;;;4951306;28;20063;-86
2022/11/04 11:25:24;;;;;;;0.60;0.60;;;12.70;99.90;;;;;;4979108;28;20197;-86
2022/11/04 11:27:59;;;;;;;0.50;0.50;;;12.90;99.90;;;;;;4972898;28;20517;-88
2022/11/04 11:30:44;;;;;;;0.50;0.50;;;12.90;99.90;;;;;;4960258;28;20147;-86
2022/11/04 11:33:18;;;;;;;0.50;0.50;;;12.80;99.90;;;;;;4990916;28;20588;-87
2022/11/04 11:35:51;;;;;;;0.50;0.50;;;13.20;99.90;;;;;;4980804;28;20434;-87
2022/11/04 11:38:26;;;;;;;0.50;0.50;;;13.50;99.90;;;;;;4972215;28;20864;-88
2022/11/04 11:41:04;;;;;;;0.50;0.50;;;13.70;99.90;;;;;;4991038;28;20106;-87
2022/11/04 11:43:33;;;;;;;0.50;0.50;;;13.90;99.90;;;;;;4995606;28;20041;-87
2022/11/04 11:45:59;;;;;;;0.50;0.50;;;13.90;99.90;;;;;;4971624;28;20126;-86
2022/11/04 11:48:31;;;;;;;0.50;0.50;;;14.00;99.90;;;;;;4973463;28;20540;-87
2022/11/04 11:50:59;;;;;;;0.50;0.50;;;14.10;99.90;;;;;;4971920;28;20617;-88
2022/11/04 11:53:29;;;;;;;0.50;0.50;;;14.20;99.90;;;;;;4963195;28;20786;-86
2022/11/04 11:56:09;;;;;;;0.50;0.50;;;14.20;99.90;;;;;;4976873;28;20081;-87
2022/11/04 11:58:45;;;;;;;0.50;0.50;;;14.30;99.90;;;;;;4969139;28;20553;-86
2022/11/04 12:01:20;;;;;;;0.50;0.50;;;14.00;99.90;;;;;;4977581;28;20339;-89
2022/11/04 12:03:47;;;;;;;0.50;0.50;;;14.10;99.90;;;;;;4974060;28;20303;-85
2022/11/04 12:06:43;;;;;;;0.50;0.50;;;14.40;99.90;;;;;;4977987;28;20057;-88
2022/11/04 12:09:32;;;;;;;0.50;0.50;;;14.50;99.90;;;;;;4965522;28;20559;-87
2022/11/04 12:12:23;;;;;;;0.50;0.50;;;14.80;99.90;;;;;;4953858;28;21111;-87
2022/11/04 12:15:01;;;;;;;0.50;0.50;;;14.90;99.90;;;;;;4958239;28;20049;-87
2022/11/04 12:17:34;;;;;;;0.50;0.50;;;14.90;99.90;;;;;;4955646;28;20051;-87
2022/11/04 12:20:17;;;;;;;0.50;0.50;;;14.80;99.90;;;;;;4960110;28;20388;-90
2022/11/04 12:22:55;;;;;;;0.50;0.50;;;14.70;99.90;;;;;;4962554;28;20049;-87
2022/11/04 12:25:37;;;;;;;0.50;0.50;;;14.60;99.90;;;;;;4959358;28;20076;-88
2022/11/04 12:28:27;;;;;;;0.50;0.50;;;14.90;99.90;;;;;;4974484;28;20381;-86
2022/11/04 12:31:11;;;;;;;0.50;0.50;;;14.80;99.90;;;;;;4959818;28;20047;-84
2022/11/04 12:33:37;;;;;;;;;;;15.00;99.90;;;;;;4974946;28;20049;-89
2022/11/04 12:36:44;;;;;;;0.50;0.50;;;15.10;99.90;;;;;;4961716;28;19924;-87
2022/11/04 12:39:38;;;;;;;0.50;0.50;;;15.10;99.90;;;;;;4922616;28;20058;-87
2022/11/04 12:42:07;;;;;;;0.50;0.50;;;15.00;99.90;;;;;;4985467;28;20551;-86
2022/11/04 12:44:35;;;;;;;0.50;0.50;;;15.10;99.90;;;;;;4995158;28;20850;-90
2022/11/04 12:47:16;;;;;;;0.50;0.50;;;15.10;99.90;;;;;;4964700;28;20063;-89
2022/11/04 12:49:57;;;;;;;0.50;0.50;;;15.10;99.90;;;;;;4987549;28;20059;-88
2022/11/04 12:52:51;;;;;;;0.50;0.50;;;15.00;99.90;;;;;;4977432;28;21006;-88
2022/11/04 12:55:39;;;;;;;0.50;0.50;;;15.00;99.90;;;;;;4973871;28;20041;-87
2022/11/04 12:58:37;;;;;;;0.50;0.50;;;15.10;99.90;;;;;;4959256;28;20047;-89
2022/11/04 13:01:09;;;;;;;0.50;0.50;;;14.70;99.90;;;;;;4957455;28;20125;-84
2022/11/04 13:03:45;;;;;;;0.50;0.50;;;14.70;99.90;;;;;;4969061;28;20052;-85
2022/11/04 13:06:29;;;;;;;0.50;0.50;;;15.00;99.90;;;;;;4970684;28;20576;-85
2022/11/04 13:09:08;;;;;;;0.50;0.50;;;15.00;99.90;;;;;;4981846;28;20961;-87
2022/11/04 13:11:54;;;;;;;0.50;0.50;;;15.10;99.90;;;;;;4969369;28;20048;-87
2022/11/04 13:14:31;;;;;;;0.50;0.50;;;15.10;99.90;;;;;;4994091;28;20837;-92
2022/11/04 13:17:12;;;;;;;0.50;0.50;;;15.20;99.90;;;;;;4983923;28;20051;-92
2022/11/04 13:19:53;;;;;;;0.50;0.50;;;15.10;99.90;;;;;;5006322;28;20097;-92
2022/11/04 13:22:26;;;;;;;0.50;0.50;;;15.20;99.90;;;;;;4990788;28;20550;-88
2022/11/04 13:24:58;;;;;;;0.50;0.50;;;15.30;99.90;;;;;;4993767;28;20154;-90
2022/11/04 13:27:35;;;;;;;0.50;0.50;;;15.30;99.90;;;;;;4995350;28;20043;-86
2022/11/04 13:30:26;;;;;;;0.50;0.50;;;15.00;99.90;;;;;;4963137;28;20404;-86
2022/11/04 13:32:57;;;;;;;0.50;0.50;;;14.90;99.90;;;;;;4985694;28;20520;-86
2022/11/04 13:35:34;;;;;;;0.50;0.50;;;14.30;99.90;;;;;;5004529;28;20043;-86
2022/11/04 13:38:24;;;;;;;0.47;0.47;;;13.70;99.90;;;;;;4996750;28;20048;-87
2022/11/04 13:40:49;;;;;;;0.50;0.50;;;13.10;99.90;;;;;;5015073;28;20513;-88
2022/11/04 13:46:33;;;;;;;0.43;0.43;;;12.20;99.90;;;;;;5027794;28;20436;-90
2022/11/04 13:49:01;;;;;;;0.50;0.50;;;12.00;99.90;;;;;;4980676;28;20748;-86
2022/11/04 13:51:42;;;;;;;0.50;0.50;;;12.00;99.90;;;;;;4991404;28;20082;-89
2022/11/04 13:54:26;;;;;;;0.50;0.50;;;11.90;99.90;;;;;;4989785;28;20155;-85
2022/11/04 13:57:11;;;;;;;0.50;0.50;;;11.70;99.90;;;;;;4989764;28;20505;-84
2022/11/04 13:59:38;;;;;;;0.60;0.60;;;11.50;99.90;;;;;;4980453;28;20745;-85